Time,TemperatureF,DewpointF,PressureIn,WindDirection,WindDirectionDegrees,WindSpeedMPH,WindSpeedGustMPH,Humidity,HourlyPrecipIn,Conditions,Clouds,dailyrainin,SoftwareType,DateUTC
2013-07-01 12:22:00,71.0,69.0,-100.00,SW,220,13.0,18.0,93,-99.99,,,-99.99,,2013-07-01 16:22:00,
2013-07-01 12:33:00,71.0,69.0,-100.00,SW,220,13.0,18.0,93,-99.99,,,-99.99,,2013-07-01 16:33:00,
2013-07-01 12:43:00,71.0,69.0,-100.00,SW,220,13.0,18.0,93,-99.99,,,-99.99,,2013-07-01 16:43:00,
2013-07-01 12:53:00,71.0,69.0,-100.00,SSW,210,11.0,13.0,94,-99.99,,,-99.99,,2013-07-01 16:53:00,
2013-07-01 13:01:00,71.0,69.0,-100.00,SSW,210,11.0,13.0,94,-99.99,,,-99.99,,2013-07-01 17:01:00,
2013-07-01 13:11:00,71.0,69.0,-100.00,SSW,210,11.0,13.0,94,-99.99,,,-99.99,,2013-07-01 17:11:00,
2013-07-01 13:33:00,71.0,69.0,-100.00,SSW,210,7.0,9.0,94,-99.99,,,-99.99,,2013-07-01 17:33:00,
2013-07-01 13:43:00,71.0,69.0,-100.00,SSW,210,7.0,9.0,94,-99.99,,,-99.99,,2013-07-01 17:43:00,
2013-07-01 13:53:00,71.0,69.0,-100.00,South,190,4.0,7.0,94,-99.99,,,-99.99,,2013-07-01 17:53:00,
2013-07-01 14:02:00,71.0,69.0,-100.00,South,190,4.0,7.0,94,-99.99,,,-99.99,,2013-07-01 18:02:00,
2013-07-01 14:11:00,71.0,69.0,-100.00,South,190,4.0,7.0,94,-99.99,,,-99.99,,2013-07-01 18:11:00,
2013-07-01 14:33:00,71.0,69.0,-100.00,South,180,9.0,11.0,94,-99.99,,,-99.99,,2013-07-01 18:33:00,
2013-07-01 14:43:00,71.0,69.0,-100.00,South,180,9.0,11.0,94,-99.99,,,-99.99,,2013-07-01 18:43:00,
2013-07-01 14:52:00,71.0,69.0,-100.00,South,170,7.0,9.0,94,-99.99,,,-99.99,,2013-07-01 18:52:00,
2013-07-01 15:01:00,71.0,69.0,-100.00,South,170,7.0,9.0,94,-99.99,,,-99.99,,2013-07-01 19:01:00,
2013-07-01 15:11:00,71.0,69.0,-100.00,South,170,7.0,9.0,94,-99.99,,,-99.99,,2013-07-01 19:11:00,
2013-07-01 15:33:00,71.0,69.0,-100.00,South,170,7.0,9.0,93,-99.99,,,-99.99,,2013-07-01 19:33:00,
2013-07-01 15:44:00,71.0,69.0,-100.00,South,170,7.0,9.0,93,-99.99,,,-99.99,,2013-07-01 19:44:00,
2013-07-01 16:01:00,71.0,69.0,-100.00,South,170,4.0,7.0,93,-99.99,,,-99.99,,2013-07-01 20:01:00,
2013-07-01 16:11:00,71.0,69.0,-100.00,South,170,4.0,7.0,93,-99.99,,,-99.99,,2013-07-01 20:11:00,
2013-07-01 16:33:00,71.0,69.0,-100.00,South,170,11.0,16.0,93,-99.99,,,-99.99,,2013-07-01 20:33:00,
2013-07-01 16:43:00,71.0,69.0,-100.00,South,170,11.0,16.0,93,-99.99,,,-99.99,,2013-07-01 20:43:00,
2013-07-01 17:01:00,71.0,69.0,-100.00,SSE,160,9.0,16.0,93,-99.99,,,-99.99,,2013-07-01 21:01:00,
2013-07-01 17:11:00,71.0,69.0,-100.00,SSE,160,9.0,16.0,93,-99.99,,,-99.99,,2013-07-01 21:11:00,
2013-07-01 17:23:00,71.0,69.0,-100.00,South,170,4.0,7.0,93,-99.99,,,-99.99,,2013-07-01 21:23:00,
2013-07-01 17:34:00,71.0,69.0,-100.00,South,170,4.0,7.0,93,-99.99,,,-99.99,,2013-07-01 21:34:00,
2013-07-01 17:43:00,71.0,69.0,-100.00,South,170,4.0,7.0,93,-99.99,,,-99.99,,2013-07-01 21:43:00,
2013-07-01 17:53:00,71.0,69.0,-100.00,South,190,4.0,4.0,93,-99.99,,,-99.99,,2013-07-01 21:53:00,
2013-07-01 18:01:00,71.0,69.0,-100.00,South,190,4.0,4.0,93,-99.99,,,-99.99,,2013-07-01 22:01:00,
2013-07-01 18:11:00,71.0,69.0,-100.00,South,190,4.0,4.0,93,-99.99,,,-99.99,,2013-07-01 22:11:00,
2013-07-01 18:23:00,71.0,69.0,-100.00,South,170,11.0,16.0,93,-99.99,,,-99.99,,2013-07-01 22:23:00,
2013-07-01 18:32:00,71.0,69.0,-100.00,South,170,11.0,16.0,93,-99.99,,,-99.99,,2013-07-01 22:32:00,
2013-07-01 18:42:00,71.0,69.0,-100.00,South,170,11.0,16.0,93,-99.99,,,-99.99,,2013-07-01 22:42:00,
2013-07-01 18:52:00,71.0,69.0,-100.00,South,170,9.0,16.0,93,-99.99,,,-99.99,,2013-07-01 22:52:00,
2013-07-01 19:01:00,71.0,69.0,-100.00,South,170,9.0,16.0,93,-99.99,,,-99.99,,2013-07-01 23:01:00,
2013-07-01 19:11:00,71.0,69.0,-100.00,South,170,9.0,16.0,93,-99.99,,,-99.99,,2013-07-01 23:11:00,
2013-07-01 19:22:00,71.0,69.0,-100.00,South,180,13.0,16.0,93,-99.99,,,-99.99,,2013-07-01 23:22:00,
2013-07-01 19:33:00,71.0,69.0,-100.00,South,180,13.0,16.0,93,-99.99,,,-99.99,,2013-07-01 23:33:00,
2013-07-01 19:43:00,71.0,69.0,-100.00,South,180,13.0,16.0,93,-99.99,,,-99.99,,2013-07-01 23:43:00,
2013-07-01 19:52:00,71.0,69.0,-100.00,South,180,9.0,13.0,93,-99.99,,,-99.99,,2013-07-01 23:52:00,
2013-07-01 20:01:00,71.0,69.0,-100.00,South,180,9.0,13.0,93,-99.99,,,-99.99,,2013-07-02 00:01:00,
2013-07-01 20:11:00,71.0,69.0,-100.00,South,180,9.0,13.0,93,-99.99,,,-99.99,,2013-07-02 00:11:00,
2013-07-01 20:53:00,71.0,69.0,-100.00,South,170,9.0,13.0,94,-99.99,,,-99.99,,2013-07-02 00:53:00,
2013-07-01 21:01:00,71.0,69.0,-100.00,South,170,9.0,13.0,94,-99.99,,,-99.99,,2013-07-02 01:01:00,
2013-07-01 21:11:00,71.0,69.0,-100.00,South,170,9.0,13.0,94,-99.99,,,-99.99,,2013-07-02 01:11:00,
2013-07-01 21:43:00,71.0,69.0,-100.00,South,180,11.0,13.0,94,-99.99,,,-99.99,,2013-07-02 01:43:00,
2013-07-01 21:53:00,71.0,69.0,-100.00,South,190,11.0,13.0,94,-99.99,,,-99.99,,2013-07-02 01:53:00,
2013-07-01 22:01:00,71.0,69.0,-100.00,South,190,11.0,13.0,94,-99.99,,,-99.99,,2013-07-02 02:01:00,
2013-07-01 22:11:00,71.0,69.0,-100.00,South,190,11.0,13.0,94,-99.99,,,-99.99,,2013-07-02 02:11:00,
2013-07-01 22:33:00,71.0,69.0,-100.00,South,190,11.0,13.0,94,-99.99,,,-99.99,,2013-07-02 02:33:00,
2013-07-01 22:43:00,71.0,69.0,-100.00,South,190,11.0,13.0,94,-99.99,,,-99.99,,2013-07-02 02:43:00,
2013-07-01 22:53:00,71.0,69.0,-100.00,South,190,13.0,16.0,94,-99.99,,,-99.99,,2013-07-02 02:53:00,
2013-07-01 23:01:00,71.0,69.0,-100.00,South,190,13.0,16.0,94,-99.99,,,-99.99,,2013-07-02 03:01:00,
2013-07-01 23:11:00,71.0,69.0,-100.00,South,190,13.0,16.0,94,-99.99,,,-99.99,,2013-07-02 03:11:00,
2013-07-01 23:32:00,71.0,69.0,-100.00,SSW,200,9.0,11.0,94,-99.99,,,-99.99,,2013-07-02 03:32:00,
2013-07-01 23:43:00,71.0,69.0,-100.00,SSW,200,9.0,11.0,94,-99.99,,,-99.99,,2013-07-02 03:43:00,
2013-07-01 23:53:00,71.0,69.0,-100.00,SSW,200,9.0,13.0,94,-99.99,,,-99.99,,2013-07-02 03:53:00,